createdAt,value
2022-07-29T00:00:57.208Z,3.60
2022-07-29T00:03:23.756Z,3.40
2022-07-29T00:05:50.286Z,4.10
2022-07-29T00:08:16.743Z,4.00
2022-07-29T00:10:43.492Z,3.80
2022-07-29T00:13:09.982Z,4.40
2022-07-29T00:15:36.555Z,4.40
2022-07-29T00:18:03.120Z,4.07
2022-07-29T00:20:29.598Z,4.10
2022-07-29T00:22:56.143Z,4.63
2022-07-29T00:25:22.599Z,4.93
2022-07-29T00:27:49.178Z,4.25
2022-07-29T00:30:15.832Z,4.50
2022-07-29T00:32:42.564Z,4.47
2022-07-29T00:35:28.443Z,4.47
2022-07-29T00:37:54.965Z,4.60
2022-07-29T00:40:23.523Z,4.50
2022-07-29T00:42:52.624Z,4.63
2022-07-29T00:45:19.923Z,4.73
2022-07-29T00:47:47.434Z,4.60
2022-07-29T00:50:14.682Z,4.75
2022-07-29T00:52:42.996Z,4.68
2022-07-29T00:55:14.505Z,4.72
2022-07-29T00:57:42.186Z,4.37
2022-07-29T01:00:12.109Z,4.32
2022-07-29T01:02:38.664Z,4.20
2022-07-29T01:05:06.867Z,4.13
2022-07-29T01:07:35.971Z,4.47
2022-07-29T01:10:05.532Z,4.30
2022-07-29T01:12:34.437Z,4.43
2022-07-29T01:15:02.633Z,4.93
2022-07-29T01:17:34.681Z,4.22
2022-07-29T01:20:31.459Z,4.40
2022-07-29T01:23:20.203Z,4.07
2022-07-29T01:26:07.991Z,4.50
2022-07-29T01:28:46.987Z,4.50
2022-07-29T01:31:24.986Z,4.55
2022-07-29T01:34:03.906Z,4.28
2022-07-29T01:36:36.119Z,3.80
2022-07-29T01:39:13.663Z,4.40
2022-07-29T01:41:51.807Z,4.57
2022-07-29T01:44:23.667Z,3.60
2022-07-29T01:46:55.018Z,4.28
2022-07-29T01:49:28.229Z,4.17
2022-07-29T01:52:03.506Z,4.10
2022-07-29T01:54:43.917Z,4.32
2022-07-29T01:57:15.640Z,4.10
2022-07-29T01:59:44.361Z,4.45
2022-07-29T02:02:13.873Z,3.67
2022-07-29T02:04:42.372Z,4.70
2022-07-29T02:07:15.243Z,5.15
2022-07-29T02:09:42.844Z,4.03
2022-07-29T02:12:11.654Z,4.82
2022-07-29T02:14:44.707Z,4.73
2022-07-29T02:17:13.283Z,4.30
2022-07-29T02:19:42.871Z,5.30
2022-07-29T02:22:11.128Z,4.45
2022-07-29T02:24:41.099Z,5.15
2022-07-29T02:27:09.047Z,5.17
2022-07-29T02:29:36.789Z,5.07
2022-07-29T02:32:04.759Z,5.80
2022-07-29T02:34:31.972Z,5.35
2022-07-29T02:36:59.412Z,5.10
2022-07-29T02:39:28.475Z,5.53
2022-07-29T02:42:08.082Z,5.18
2022-07-29T02:44:35.747Z,5.18
2022-07-29T02:47:10.963Z,4.95
2022-07-29T02:50:05.331Z,5.03
2022-07-29T02:52:46.775Z,4.50
2022-07-29T02:55:23.494Z,4.35
2022-07-29T02:58:02.191Z,4.55
2022-07-29T03:00:32.374Z,4.80
2022-07-29T03:03:01.966Z,4.93
2022-07-29T03:05:28.498Z,4.33
2022-07-29T03:08:15.704Z,4.45
2022-07-29T03:10:46.524Z,4.00
2022-07-29T03:13:14.137Z,4.13
2022-07-29T03:15:43.104Z,4.30
2022-07-29T03:18:10.607Z,3.70
2022-07-29T03:20:38.727Z,3.95
2022-07-29T03:23:05.561Z,4.43
2022-07-29T03:25:32.367Z,4.00
2022-07-29T03:27:58.866Z,3.78
2022-07-29T03:30:25.339Z,4.03
2022-07-29T03:32:52.752Z,3.80
2022-07-29T03:35:20.936Z,3.97
2022-07-29T03:37:47.766Z,3.58
2022-07-29T03:40:26.879Z,3.58
2022-07-29T03:42:56.478Z,3.63
2022-07-29T03:45:24.550Z,3.72
2022-07-29T03:48:00.748Z,3.55
2022-07-29T03:50:29.557Z,3.60
2022-07-29T03:52:56.077Z,3.65
2022-07-29T03:55:22.986Z,3.97
2022-07-29T03:57:51.624Z,3.55
2022-07-29T04:00:18.761Z,3.78
2022-07-29T04:02:49.247Z,3.80
2022-07-29T04:05:16.549Z,5.30
2022-07-29T04:07:47.913Z,3.63
2022-07-29T04:10:16.592Z,3.50
2022-07-29T04:12:43.262Z,4.38
2022-07-29T04:15:10.460Z,4.00
2022-07-29T04:17:36.928Z,4.47
2022-07-29T04:20:04.741Z,4.40
2022-07-29T04:22:31.280Z,4.72
2022-07-29T04:25:03.229Z,4.93
2022-07-29T04:27:30.378Z,4.57
2022-07-29T04:29:57.632Z,5.55
2022-07-29T04:32:28.005Z,4.83
2022-07-29T04:34:54.551Z,5.10
2022-07-29T04:37:21.118Z,5.63
2022-07-29T04:39:47.603Z,5.30
2022-07-29T04:42:14.097Z,5.78
2022-07-29T04:44:42.835Z,5.97
2022-07-29T04:47:09.888Z,5.93
2022-07-29T04:49:39.111Z,6.63
2022-07-29T04:52:06.370Z,5.97
2022-07-29T04:54:32.823Z,5.53
2022-07-29T04:56:59.291Z,4.53
2022-07-29T04:59:27.637Z,4.18
2022-07-29T05:01:54.293Z,4.20
2022-07-29T05:04:21.154Z,4.75
2022-07-29T05:06:47.874Z,5.18
2022-07-29T05:09:14.368Z,5.13
2022-07-29T05:11:40.949Z,5.63
2022-07-29T05:14:07.417Z,6.20
2022-07-29T05:16:34.471Z,5.63
2022-07-29T05:19:01.022Z,5.57
2022-07-29T05:21:27.494Z,6.33
2022-07-29T05:23:53.943Z,5.57
2022-07-29T05:26:20.449Z,6.43
2022-07-29T05:28:46.923Z,5.55
2022-07-29T05:31:15.584Z,5.57
2022-07-29T05:33:42.534Z,5.00
2022-07-29T05:36:09.375Z,5.57
2022-07-29T05:38:36.781Z,4.90
2022-07-29T05:41:03.934Z,5.28
2022-07-29T05:43:30.937Z,5.30
2022-07-29T05:45:57.827Z,4.80
2022-07-29T05:48:24.759Z,5.05
2022-07-29T05:50:51.223Z,5.28
2022-07-29T05:53:20.158Z,4.35
2022-07-29T05:55:48.317Z,5.25
2022-07-29T05:58:14.802Z,3.90
2022-07-29T06:00:41.439Z,4.03
2022-07-29T06:03:08.023Z,3.83
2022-07-29T06:05:34.528Z,3.33
2022-07-29T06:08:00.995Z,3.38
2022-07-29T06:10:27.897Z,3.23
2022-07-29T06:12:54.522Z,3.25
2022-07-29T06:15:21.199Z,3.65
2022-07-29T06:18:00.035Z,3.33
2022-07-29T06:20:27.769Z,3.33
2022-07-29T06:22:54.219Z,3.33
2022-07-29T06:25:20.794Z,3.42
2022-07-29T06:27:47.243Z,2.97
2022-07-29T06:30:13.951Z,2.90
2022-07-29T06:32:43.171Z,3.40
2022-07-29T06:35:37.890Z,2.97
2022-07-29T06:37:59.619Z,2.90
2022-07-29T06:40:45.235Z,2.88
2022-07-29T06:43:11.868Z,2.88
2022-07-29T06:45:42.212Z,3.05
2022-07-29T06:48:08.976Z,2.90
2022-07-29T06:50:35.638Z,2.75
2022-07-29T06:53:02.319Z,2.90
2022-07-29T06:55:28.788Z,3.10
2022-07-29T06:57:55.247Z,2.40
2022-07-29T07:00:21.774Z,3.10
2022-07-29T07:02:48.897Z,2.20
2022-07-29T07:05:15.502Z,3.00
2022-07-29T07:07:41.985Z,2.60
2022-07-29T07:10:09.259Z,2.65
2022-07-29T07:12:35.797Z,2.30
2022-07-29T07:15:02.305Z,2.70
2022-07-29T07:17:28.806Z,2.72
2022-07-29T07:19:55.719Z,2.53
2022-07-29T07:22:22.302Z,2.55
2022-07-29T07:24:48.775Z,2.40
2022-07-29T07:27:15.322Z,2.75
2022-07-29T07:29:43.708Z,2.85
2022-07-29T07:32:11.055Z,2.50
2022-07-29T07:34:38.997Z,2.85
2022-07-29T07:37:06.265Z,2.60
2022-07-29T07:39:32.710Z,2.55
2022-07-29T07:41:59.283Z,2.83
2022-07-29T07:44:25.736Z,2.67
2022-07-29T07:46:53.434Z,3.17
2022-07-29T07:49:21.290Z,2.63
2022-07-29T07:51:50.731Z,3.00
2022-07-29T07:54:20.486Z,3.22
2022-07-29T07:56:50.777Z,2.78
2022-07-29T07:59:19.913Z,2.90
2022-07-29T08:01:55.109Z,2.57
2022-07-29T08:04:27.327Z,2.60
2022-07-29T08:06:55.884Z,2.97
2022-07-29T08:09:30.886Z,2.78
2022-07-29T08:12:00.023Z,3.15
2022-07-29T08:14:26.687Z,2.50
2022-07-29T08:16:53.192Z,2.83
2022-07-29T08:19:19.711Z,2.83
2022-07-29T08:21:46.391Z,2.97
2022-07-29T08:24:31.615Z,2.90
2022-07-29T08:26:58.185Z,2.37
2022-07-29T08:29:24.745Z,2.72
2022-07-29T08:31:51.534Z,2.67
2022-07-29T08:34:18.221Z,2.67
2022-07-29T08:36:44.745Z,3.33
2022-07-29T08:39:16.743Z,2.87
2022-07-29T08:41:53.057Z,2.40
2022-07-29T08:44:30.400Z,2.80
2022-07-29T08:46:58.089Z,3.33
2022-07-29T08:49:24.824Z,3.53
2022-07-29T08:51:52.554Z,4.63
2022-07-29T08:54:20.843Z,3.10
2022-07-29T08:56:50.921Z,3.40
2022-07-29T08:59:22.032Z,3.33
2022-07-29T09:01:52.145Z,4.05
2022-07-29T09:04:20.391Z,3.53
2022-07-29T09:06:50.404Z,5.82
2022-07-29T09:09:17.650Z,3.08
2022-07-29T09:11:44.506Z,2.88
2022-07-29T09:14:13.502Z,2.78
2022-07-29T09:16:57.547Z,2.57
2022-07-29T09:19:29.613Z,2.88
2022-07-29T09:22:04.394Z,3.05
2022-07-29T09:24:38.667Z,3.42
2022-07-29T09:27:11.219Z,2.92
2022-07-29T09:29:38.935Z,2.60
2022-07-29T09:32:10.568Z,3.25
2022-07-29T09:34:38.010Z,3.67
2022-07-29T09:37:05.119Z,2.92
2022-07-29T09:39:37.490Z,2.33
2022-07-29T09:42:06.109Z,2.60
2022-07-29T09:44:52.854Z,3.10
2022-07-29T09:47:22.748Z,2.20
2022-07-29T09:49:53.782Z,2.33
2022-07-29T09:52:20.840Z,2.63
2022-07-29T09:54:47.419Z,2.57
2022-07-29T09:57:31.251Z,2.90
2022-07-29T10:00:00.583Z,3.00
2022-07-29T10:02:32.219Z,2.67
2022-07-29T10:05:00.392Z,2.97
2022-07-29T10:07:27.541Z,2.60
2022-07-29T10:09:58.694Z,2.65
2022-07-29T10:12:25.442Z,3.13
2022-07-29T10:14:52.402Z,3.10
2022-07-29T10:17:20.207Z,3.03
2022-07-29T10:19:48.062Z,2.87
2022-07-29T10:22:15.073Z,2.85
2022-07-29T10:24:41.733Z,2.88
2022-07-29T10:27:09.528Z,2.50
2022-07-29T10:29:37.117Z,3.10
2022-07-29T10:32:06.303Z,3.50
2022-07-29T10:35:06.733Z,3.22
2022-07-29T10:37:58.282Z,2.97
2022-07-29T10:41:00.846Z,2.65
2022-07-29T10:43:31.859Z,2.40
2022-07-29T10:46:00.834Z,3.23
2022-07-29T10:48:27.423Z,2.85
2022-07-29T10:51:05.060Z,2.85
2022-07-29T10:53:51.631Z,2.65
2022-07-29T10:56:30.359Z,2.60
2022-07-29T10:59:22.926Z,2.40
2022-07-29T11:01:56.672Z,2.55
2022-07-29T11:04:45.251Z,2.75
2022-07-29T11:07:13.789Z,2.78
2022-07-29T11:09:41.815Z,2.35
2022-07-29T11:12:39.409Z,3.00
2022-07-29T11:15:13.732Z,2.67
2022-07-29T11:17:59.207Z,2.88
2022-07-29T11:20:37.910Z,2.50
2022-07-29T11:23:33.321Z,2.53
2022-07-29T11:26:23.238Z,2.80
2022-07-29T11:28:55.641Z,2.10
2022-07-29T11:31:34.622Z,2.20
2022-07-29T11:34:31.360Z,2.22
2022-07-29T11:37:07.470Z,2.22
2022-07-29T11:42:28.174Z,1.88
2022-07-29T11:45:43.678Z,2.50
2022-07-29T11:48:27.653Z,1.70
2022-07-29T11:50:48.291Z,1.85
2022-07-29T11:53:16.083Z,1.90
2022-07-29T11:58:30.161Z,1.70
2022-07-29T12:00:57.993Z,1.95
2022-07-29T12:03:34.813Z,1.42
2022-07-29T12:06:02.765Z,1.67
2022-07-29T12:07:01.815Z,2.10
2022-07-29T12:08:30.456Z,2.15
2022-07-29T12:10:57.095Z,2.67
2022-07-29T12:13:36.975Z,2.35
2022-07-29T12:16:05.036Z,2.80
2022-07-29T12:18:32.031Z,2.17
2022-07-29T12:21:03.075Z,2.25
2022-07-29T12:23:34.488Z,2.80
2022-07-29T12:26:02.027Z,2.40
2022-07-29T12:28:28.556Z,2.72
2022-07-29T12:30:55.051Z,2.47
2022-07-29T12:33:27.360Z,2.75
2022-07-29T12:36:06.767Z,2.50
2022-07-29T12:38:35.874Z,2.83
2022-07-29T12:41:02.715Z,3.05
2022-07-29T12:43:31.492Z,2.80
2022-07-29T12:45:58.436Z,2.35
2022-07-29T12:48:35.841Z,2.42
2022-07-29T12:51:04.078Z,3.38
2022-07-29T12:53:31.066Z,3.03
2022-07-29T12:56:00.653Z,2.87
2022-07-29T12:58:28.172Z,3.30
2022-07-29T13:01:06.992Z,3.78
2022-07-29T13:03:56.874Z,3.42
2022-07-29T13:06:34.695Z,3.50
2022-07-29T13:09:25.182Z,3.33
2022-07-29T13:11:53.453Z,3.22
2022-07-29T13:14:40.414Z,3.45
2022-07-29T13:17:16.770Z,3.35
2022-07-29T13:19:51.386Z,3.55
2022-07-29T13:22:25.713Z,3.30
2022-07-29T13:24:55.504Z,3.63
2022-07-29T13:27:30.191Z,3.85
2022-07-29T13:29:59.228Z,3.67
2022-07-29T13:32:28.527Z,3.50
2022-07-29T13:35:00.395Z,3.47
2022-07-29T13:37:30.687Z,3.67
2022-07-29T13:39:58.115Z,3.47
2022-07-29T13:42:24.887Z,3.50
2022-07-29T13:44:52.656Z,3.85
2022-07-29T13:47:31.920Z,3.63
2022-07-29T13:50:00.391Z,4.00
2022-07-29T13:52:26.918Z,3.90
2022-07-29T13:54:53.406Z,3.90
2022-07-29T13:57:20.318Z,4.18
2022-07-29T13:59:50.528Z,4.10
2022-07-29T14:02:19.998Z,4.80
2022-07-29T14:04:46.659Z,4.00
2022-07-29T14:07:16.215Z,4.20
2022-07-29T14:09:43.513Z,4.38
2022-07-29T14:12:10.267Z,4.00
2022-07-29T14:14:37.705Z,4.13
2022-07-29T14:17:07.512Z,4.05
2022-07-29T14:19:36.751Z,3.95
2022-07-29T14:22:05.431Z,4.32
2022-07-29T14:24:34.676Z,4.23
2022-07-29T14:27:04.290Z,3.58
2022-07-29T14:29:37.497Z,4.47
2022-07-29T14:32:06.942Z,4.47
2022-07-29T14:34:34.405Z,3.95
2022-07-29T14:37:00.871Z,4.37
2022-07-29T14:39:31.998Z,4.15
2022-07-29T14:41:59.193Z,4.57
2022-07-29T14:44:31.991Z,4.20
2022-07-29T14:47:00.743Z,4.63
2022-07-29T14:49:28.201Z,5.17
2022-07-29T14:51:55.078Z,4.80
2022-07-29T14:54:21.863Z,4.85
2022-07-29T14:56:50.316Z,4.50
2022-07-29T14:59:17.487Z,3.70
2022-07-29T15:01:44.241Z,4.40
2022-07-29T15:04:10.714Z,4.82
2022-07-29T15:06:37.535Z,4.53
2022-07-29T15:09:04.073Z,4.53
2022-07-29T15:11:30.579Z,4.13
2022-07-29T15:14:03.595Z,4.57
2022-07-29T15:16:30.115Z,3.90
2022-07-29T15:18:58.686Z,3.83
2022-07-29T15:21:28.002Z,3.53
2022-07-29T15:23:54.575Z,4.15
2022-07-29T15:26:21.171Z,3.60
2022-07-29T15:28:47.869Z,3.55
2022-07-29T15:31:14.424Z,3.90
2022-07-29T15:33:41.455Z,3.88
2022-07-29T15:36:08.209Z,3.70
2022-07-29T15:38:34.790Z,3.90
2022-07-29T15:41:01.420Z,3.40
2022-07-29T15:43:28.178Z,3.20
2022-07-29T15:46:13.600Z,3.22
2022-07-29T15:48:40.384Z,3.63
2022-07-29T15:51:06.930Z,3.03
2022-07-29T15:53:35.278Z,3.30
2022-07-29T15:56:02.202Z,2.85
2022-07-29T15:58:28.908Z,3.10
2022-07-29T16:00:55.631Z,3.13
2022-07-29T16:03:22.929Z,2.83
2022-07-29T16:05:49.603Z,2.78
2022-07-29T16:08:16.220Z,2.90
2022-07-29T16:10:42.719Z,2.40
2022-07-29T16:13:09.307Z,2.63
2022-07-29T16:15:35.846Z,3.00
2022-07-29T16:18:02.384Z,1.92
2022-07-29T16:20:30.211Z,1.80
2022-07-29T16:22:56.851Z,1.98
2022-07-29T16:25:38.478Z,1.70
2022-07-29T16:28:10.574Z,2.13
2022-07-29T16:30:37.136Z,1.75
2022-07-29T16:33:08.090Z,1.90
2022-07-29T16:35:39.496Z,1.80
2022-07-29T16:38:06.783Z,1.67
2022-07-29T16:40:33.333Z,1.20
2022-07-29T16:42:59.930Z,1.80
2022-07-29T16:45:26.651Z,1.85
2022-07-29T16:48:01.005Z,1.30
2022-07-29T16:50:28.904Z,1.80
2022-07-29T16:52:56.341Z,1.63
2022-07-29T16:55:22.820Z,1.52
2022-07-29T16:57:49.654Z,1.35
2022-07-29T17:00:17.580Z,1.42
2022-07-29T17:02:44.150Z,1.45
2022-07-29T17:05:12.339Z,1.60
2022-07-29T17:07:40.253Z,1.73
2022-07-29T17:10:10.991Z,2.45
2022-07-29T17:12:38.859Z,1.92
2022-07-29T17:15:07.397Z,1.92
2022-07-29T17:17:38.973Z,1.63
2022-07-29T17:20:20.959Z,2.10
2022-07-29T17:22:47.530Z,2.40
2022-07-29T17:25:20.815Z,1.50
2022-07-29T17:27:49.518Z,1.63
2022-07-29T17:30:16.042Z,1.30
2022-07-29T17:32:42.508Z,1.48
2022-07-29T17:35:29.767Z,1.63
2022-07-29T17:37:56.302Z,1.50
2022-07-29T17:40:22.986Z,1.83
2022-07-29T17:42:49.682Z,1.80
2022-07-29T17:45:16.368Z,2.03
2022-07-29T17:47:42.831Z,2.33
2022-07-29T17:50:09.708Z,1.98
2022-07-29T17:52:36.226Z,1.60
2022-07-29T17:55:02.747Z,1.97
2022-07-29T17:57:29.258Z,1.80
2022-07-29T17:59:55.726Z,1.65
2022-07-29T18:02:22.293Z,1.55
2022-07-29T18:04:51.554Z,2.22
2022-07-29T18:07:18.558Z,2.20
2022-07-29T18:09:45.261Z,2.00
2022-07-29T18:12:11.770Z,2.38
2022-07-29T18:14:38.527Z,2.33
2022-07-29T18:17:05.001Z,2.67
2022-07-29T18:19:31.667Z,2.43
2022-07-29T18:22:03.226Z,2.42
2022-07-29T18:24:32.321Z,2.58
2022-07-29T18:26:59.122Z,2.88
2022-07-29T18:29:28.795Z,2.50
2022-07-29T18:31:55.406Z,2.47
2022-07-29T18:34:22.012Z,2.38
2022-07-29T18:36:48.543Z,2.75
2022-07-29T18:39:20.713Z,2.75
2022-07-29T18:41:50.628Z,2.42
2022-07-29T18:44:22.011Z,2.47
2022-07-29T18:46:49.588Z,2.67
2022-07-29T18:49:16.175Z,3.00
2022-07-29T18:51:42.815Z,2.80
2022-07-29T18:54:10.724Z,3.13
2022-07-29T18:56:37.602Z,3.10
2022-07-29T18:59:04.753Z,3.15
2022-07-29T19:01:31.850Z,3.60
2022-07-29T19:03:59.176Z,3.63
2022-07-29T19:06:26.160Z,3.30
2022-07-29T19:08:52.823Z,3.40
2022-07-29T19:11:19.322Z,3.70
2022-07-29T19:13:45.864Z,3.45
2022-07-29T19:16:14.030Z,3.38
2022-07-29T19:18:41.342Z,4.10
2022-07-29T19:21:07.841Z,3.20
2022-07-29T19:24:01.411Z,3.83
2022-07-29T19:26:20.972Z,4.50
2022-07-29T19:28:48.710Z,4.20
2022-07-29T19:31:15.802Z,3.95
2022-07-29T19:33:42.674Z,3.87
2022-07-29T19:36:09.194Z,4.72
2022-07-29T19:38:35.743Z,4.20
2022-07-29T19:41:02.218Z,4.03
2022-07-29T19:43:51.499Z,4.07
2022-07-29T19:46:15.773Z,3.90
2022-07-29T19:48:42.403Z,4.50
2022-07-29T19:51:08.923Z,3.63
2022-07-29T19:53:35.455Z,4.32
2022-07-29T19:56:01.965Z,4.30
2022-07-29T19:58:30.287Z,4.27
2022-07-29T20:00:57.312Z,3.60
2022-07-29T20:03:23.766Z,3.58
2022-07-29T20:05:51.364Z,3.67
2022-07-29T20:08:18.104Z,3.90
2022-07-29T20:10:44.655Z,4.23
2022-07-29T20:13:11.203Z,4.00
2022-07-29T20:15:37.724Z,4.15
2022-07-29T20:18:04.549Z,3.85
2022-07-29T20:20:31.008Z,4.53
2022-07-29T20:22:58.585Z,3.60
2022-07-29T20:25:25.409Z,3.80
2022-07-29T20:27:55.110Z,4.15
2022-07-29T20:30:22.456Z,3.58
2022-07-29T20:32:49.840Z,3.78
2022-07-29T20:35:16.498Z,4.40
2022-07-29T20:37:52.312Z,3.88
2022-07-29T20:40:24.294Z,4.00
2022-07-29T20:42:50.803Z,4.30
2022-07-29T20:45:17.515Z,4.15
2022-07-29T20:47:43.995Z,4.17
2022-07-29T20:50:10.460Z,3.72
2022-07-29T20:52:36.991Z,4.57
2022-07-29T20:55:03.690Z,4.22
2022-07-29T20:57:39.157Z,4.55
2022-07-29T21:00:07.464Z,3.90
2022-07-29T21:02:34.292Z,4.40
2022-07-29T21:05:01.172Z,4.70
2022-07-29T21:07:27.688Z,4.50
2022-07-29T21:09:54.143Z,4.40
2022-07-29T21:12:20.605Z,5.23
2022-07-29T21:14:48.071Z,4.80
2022-07-29T21:17:16.336Z,4.95
2022-07-29T21:19:43.196Z,4.85
2022-07-29T21:22:09.982Z,5.93
2022-07-29T21:24:36.507Z,5.30
2022-07-29T21:27:22.005Z,6.03
2022-07-29T21:29:49.354Z,5.53
2022-07-29T21:32:29.764Z,6.00
2022-07-29T21:34:56.770Z,5.75
2022-07-29T21:37:23.333Z,6.03
2022-07-29T21:39:49.920Z,6.50
2022-07-29T21:42:16.495Z,6.95
2022-07-29T21:44:43.022Z,6.38
2022-07-29T21:47:09.860Z,6.40
2022-07-29T21:49:36.359Z,5.43
2022-07-29T21:52:04.715Z,6.13
2022-07-29T21:54:31.496Z,5.85
2022-07-29T21:56:58.373Z,5.57
2022-07-29T21:59:25.275Z,5.57
2022-07-29T22:01:51.824Z,5.17
2022-07-29T22:04:18.529Z,5.63
2022-07-29T22:06:45.084Z,5.97
2022-07-29T22:09:11.692Z,6.53
2022-07-29T22:11:38.274Z,5.85
2022-07-29T22:14:05.742Z,5.07
2022-07-29T22:16:32.307Z,6.03
2022-07-29T22:18:58.834Z,5.65
2022-07-29T22:21:25.315Z,6.18
2022-07-29T22:23:51.824Z,6.15
2022-07-29T22:26:18.354Z,6.27
2022-07-29T22:28:44.829Z,6.15
2022-07-29T22:31:11.390Z,5.43
2022-07-29T22:33:37.987Z,6.25
2022-07-29T22:36:04.755Z,5.72
2022-07-29T22:38:31.214Z,6.43
2022-07-29T22:41:01.326Z,5.60
2022-07-29T22:43:28.232Z,6.10
2022-07-29T22:45:54.959Z,5.82
2022-07-29T22:48:21.503Z,6.07
2022-07-29T22:50:47.994Z,5.70
2022-07-29T22:53:14.468Z,5.43
2022-07-29T22:55:41.053Z,5.80
2022-07-29T22:58:07.539Z,6.30
2022-07-29T23:00:34.226Z,5.97
2022-07-29T23:03:00.753Z,6.30
2022-07-29T23:05:27.332Z,5.82
2022-07-29T23:07:53.821Z,6.05
2022-07-29T23:10:22.185Z,6.20
2022-07-29T23:12:48.624Z,5.95
2022-07-29T23:15:15.322Z,6.40
2022-07-29T23:17:41.789Z,6.25
2022-07-29T23:20:09.908Z,6.85
2022-07-29T23:22:36.657Z,6.25
2022-07-29T23:25:04.976Z,6.68
2022-07-29T23:27:31.506Z,6.67
2022-07-29T23:29:57.982Z,6.03
2022-07-29T23:32:24.410Z,6.43
2022-07-29T23:34:50.879Z,6.70
2022-07-29T23:37:17.326Z,6.88
2022-07-29T23:39:43.807Z,7.37
2022-07-29T23:42:10.278Z,7.40
2022-07-29T23:44:36.760Z,7.00
2022-07-29T23:47:03.676Z,7.43
2022-07-29T23:49:30.397Z,7.30
2022-07-29T23:51:57.026Z,8.47
2022-07-29T23:54:23.508Z,7.18
2022-07-29T23:56:49.977Z,7.50
2022-07-29T23:59:16.482Z,7.57
